Time;durP1;ratioP1;P1;durP2;ratioP2;P2;SDS_P1;SDS_P2;PMS_P1;PMS_P2;Temp;Humidity;BMP_temperature;BMP_pressure;BME280_temperature;BME280_humidity;BME280_pressure;Samples;Min_cycle;Max_cycle;Signal;HPM_P1;HPM_P2
2021/06/19 00:02:12;;;;;;;6.40;2.90;;;;;;;23.83;50.70;100594.94;5053663;28;20060;-79
2021/06/19 00:05:17;;;;;;;6.35;2.67;;;;;;;23.76;51.73;100591.38;5054207;28;20056;-79
2021/06/19 00:08:24;;;;;;;4.72;2.97;;;;;;;23.73;51.71;100591.81;5064698;28;20044;-79
2021/06/19 00:11:28;;;;;;;5.18;2.83;;;;;;;23.71;51.70;100600.25;5054230;28;20052;-79
2021/06/19 00:14:33;;;;;;;6.97;2.88;;;;;;;23.61;51.76;100599.84;5053212;28;20048;-79
2021/06/19 00:17:38;;;;;;;8.13;2.95;;;;;;;23.46;52.52;100596.50;5054214;28;20510;-78
2021/06/19 00:20:43;;;;;;;3.05;2.30;;;;;;;23.40;52.46;100596.50;5053898;28;20052;-79
2021/06/19 00:23:47;;;;;;;7.40;3.00;;;;;;;23.37;52.43;100595.03;5053781;28;20040;-77
2021/06/19 00:26:52;;;;;;;8.38;2.80;;;;;;;23.32;52.90;100592.06;5053774;28;20044;-79
2021/06/19 00:29:56;;;;;;;5.68;2.95;;;;;;;23.28;52.75;100588.06;5053406;28;20052;-79
2021/06/19 00:33:00;;;;;;;11.23;2.65;;;;;;;23.23;52.77;100594.16;5053322;28;20048;-79
2021/06/19 00:36:05;;;;;;;6.75;2.22;;;;;;;23.18;52.95;100590.38;5053543;28;20483;-77
2021/06/19 00:39:09;;;;;;;6.97;2.75;;;;;;;23.00;53.02;100601.09;5053896;28;20574;-79
2021/06/19 00:42:21;;;;;;;7.55;2.53;;;;;;;23.05;52.76;100604.06;5052939;28;20390;-77
2021/06/19 00:45:28;;;;;;;18.17;3.67;;;;;;;23.06;52.76;100605.75;5053389;28;20044;-77
2021/06/19 00:48:32;;;;;;;17.98;3.15;;;;;;;23.04;52.48;100591.41;5064186;28;20056;-78
2021/06/19 00:51:37;;;;;;;7.18;2.75;;;;;;;22.97;52.60;100594.16;5053535;28;20048;-79
2021/06/19 00:54:41;;;;;;;5.13;2.70;;;;;;;22.99;52.21;100594.78;5053490;28;20060;-76
2021/06/19 00:57:46;;;;;;;8.02;2.45;;;;;;;23.03;51.97;100595.22;5053558;28;20048;-77
2021/06/19 01:00:50;;;;;;;12.27;3.30;;;;;;;23.05;52.00;100593.94;5053554;28;20479;-78
2021/06/19 01:03:55;;;;;;;6.75;2.80;;;;;;;23.08;51.75;100593.53;5052858;28;20052;-78
2021/06/19 01:06:59;;;;;;;5.30;2.45;;;;;;;23.13;51.33;100595.63;5066485;28;20052;-79
2021/06/19 01:10:05;;;;;;;8.45;2.30;;;;;;;23.20;51.42;100586.38;5073149;28;20490;-79
2021/06/19 01:13:10;;;;;;;10.02;3.13;;;;;;;23.21;51.56;100585.31;5073634;28;20052;-77
2021/06/19 01:16:15;;;;;;;10.70;2.90;;;;;;;23.14;51.40;100587.19;5084194;28;20047;-79
2021/06/19 01:19:19;;;;;;;5.57;2.50;;;;;;;23.05;51.30;100593.94;5073316;28;20051;-77
2021/06/19 01:22:24;;;;;;;6.30;2.45;;;;;;;22.89;51.68;100588.00;5077028;28;20486;-78
2021/06/19 01:25:32;;;;;;;7.20;2.53;;;;;;;22.86;51.53;100591.19;5077258;28;20509;-78
2021/06/19 01:28:37;;;;;;;4.00;2.60;;;;;;;22.96;51.44;100605.31;5077243;28;20071;-80
2021/06/19 01:31:41;;;;;;;6.55;2.40;;;;;;;22.97;51.84;100607.84;5076275;28;20047;-77
2021/06/19 01:34:45;;;;;;;5.20;2.50;;;;;;;23.10;51.00;100602.38;5076291;28;20059;-79
2021/06/19 01:37:53;;;;;;;4.80;2.33;;;;;;;23.08;50.90;100604.50;5076861;28;20056;-79
2021/06/19 01:40:58;;;;;;;6.85;2.42;;;;;;;23.03;50.61;100606.16;5076811;28;20063;-78
2021/06/19 01:44:07;;;;;;;8.38;2.58;;;;;;;23.09;50.61;100614.38;5076942;28;20055;-78
2021/06/19 01:47:11;;;;;;;6.10;2.55;;;;;;;23.22;50.82;100610.81;5076629;28;20051;-77
2021/06/19 01:50:22;;;;;;;6.47;2.42;;;;;;;23.33;50.15;100612.94;5076852;28;20391;-77
2021/06/19 01:53:27;;;;;;;4.32;2.17;;;;;;;23.43;49.64;100627.06;5076502;28;20114;-78
2021/06/19 01:56:31;;;;;;;4.07;2.40;;;;;;;23.51;49.28;100634.22;5076265;28;20051;-80
2021/06/19 01:59:35;;;;;;;4.63;2.25;;;;;;;23.56;49.14;100639.91;5076536;28;20055;-78
2021/06/19 02:02:40;;;;;;;4.28;2.15;;;;;;;23.54;49.17;100622.84;5075478;28;20094;-77
2021/06/19 02:05:45;;;;;;;4.32;2.42;;;;;;;23.59;48.21;100640.34;5075470;28;20048;-77
2021/06/19 02:09:07;;;;;;;3.58;2.20;;;;;;;23.49;48.99;100642.66;5076197;28;20059;-77
2021/06/19 02:12:11;;;;;;;6.15;2.30;;;;;;;23.34;49.87;100647.47;5075926;28;20514;-79
2021/06/19 02:15:17;;;;;;;4.72;2.42;;;;;;;23.29;49.36;100655.47;5076075;28;20059;-77
2021/06/19 02:18:21;;;;;;;5.35;2.42;;;;;;;23.25;48.91;100649.59;5076119;28;20048;-78
2021/06/19 02:21:26;;;;;;;4.35;2.10;;;;;;;23.21;48.38;100652.94;5076100;28;20063;-78
2021/06/19 02:24:30;;;;;;;4.30;2.67;;;;;;;23.18;48.16;100642.41;5075934;28;20052;-79
2021/06/19 02:27:34;;;;;;;3.45;2.13;;;;;;;23.12;48.33;100645.97;5076085;28;20052;-77
2021/06/19 02:30:44;;;;;;;3.92;2.10;;;;;;;23.11;48.37;100639.66;5075562;28;20047;-78
2021/06/19 02:33:48;;;;;;;4.47;2.05;;;;;;;23.12;48.83;100641.34;5074436;28;20059;-79
2021/06/19 02:36:53;;;;;;;4.85;2.40;;;;;;;23.13;49.26;100628.50;5075670;28;20067;-79
2021/06/19 02:39:57;;;;;;;3.75;2.38;;;;;;;23.12;49.97;100633.13;5075650;28;20047;-77
2021/06/19 02:43:02;;;;;;;4.55;2.58;;;;;;;23.09;50.54;100630.81;5075794;28;20051;-79
2021/06/19 02:46:06;;;;;;;3.78;2.60;;;;;;;23.16;50.52;100633.53;5075653;28;20067;-77
2021/06/19 02:49:10;;;;;;;8.60;2.85;;;;;;;23.13;50.91;100623.84;5075513;28;20051;-79
2021/06/19 02:52:15;;;;;;;9.18;3.10;;;;;;;23.15;51.26;100621.78;5073986;28;20047;-79
2021/06/19 02:55:23;;;;;;;6.53;2.53;;;;;;;23.19;51.10;100633.97;5075207;28;20052;-79
2021/06/19 02:58:27;;;;;;;3.53;2.42;;;;;;;23.16;51.11;100623.44;5066045;28;20067;-78
2021/06/19 03:01:32;;;;;;;9.18;2.95;;;;;;;23.13;51.29;100618.38;5065933;28;20048;-79
2021/06/19 03:04:36;;;;;;;8.00;3.03;;;;;;;23.02;52.13;100626.38;5065790;28;20491;-79
2021/06/19 03:07:41;;;;;;;6.70;3.20;;;;;;;23.04;51.87;100632.47;5055155;28;20048;-80
2021/06/19 03:10:45;;;;;;;6.65;2.60;;;;;;;22.93;51.77;100633.09;5065494;28;20067;-78
2021/06/19 03:13:50;;;;;;;5.53;2.53;;;;;;;22.80;51.56;100641.28;5055038;28;20044;-77
2021/06/19 03:16:55;;;;;;;8.02;2.38;;;;;;;22.63;52.00;100638.94;5055026;28;20063;-78
2021/06/19 03:19:59;;;;;;;5.82;2.80;;;;;;;22.48;51.63;100651.03;5054964;28;20091;-78
2021/06/19 03:23:06;;;;;;;4.68;2.75;;;;;;;22.40;51.91;100648.47;5068973;28;20404;-77
2021/06/19 03:26:10;;;;;;;4.50;3.05;;;;;;;22.15;52.41;100650.88;5074676;28;20048;-79
2021/06/19 03:29:14;;;;;;;5.38;2.70;;;;;;;22.23;52.43;100649.88;5074899;28;20056;-79
2021/06/19 03:32:18;;;;;;;6.68;2.88;;;;;;;22.20;52.63;100644.81;5073716;28;20498;-77
2021/06/19 03:35:23;;;;;;;6.13;2.92;;;;;;;22.08;52.47;100643.69;5084641;28;20055;-78
2021/06/19 03:38:28;;;;;;;6.57;2.88;;;;;;;21.89;52.36;100645.28;5073731;28;20048;-79
2021/06/19 03:41:32;;;;;;;6.80;2.45;;;;;;;21.74;52.58;100648.09;5074633;28;20056;-77
2021/06/19 03:44:36;;;;;;;6.10;3.50;;;;;;;21.65;52.73;100654.72;5073937;28;20059;-78
2021/06/19 03:47:42;;;;;;;5.68;2.70;;;;;;;21.63;53.46;100653.22;5074354;28;20054;-77
2021/06/19 03:50:46;;;;;;;10.85;2.95;;;;;;;21.49;54.23;100659.66;5074408;28;20056;-79
2021/06/19 03:53:50;;;;;;;6.00;3.03;;;;;;;21.43;54.60;100657.72;5074221;28;20051;-78
2021/06/19 03:56:54;;;;;;;5.53;2.80;;;;;;;21.46;54.66;100658.16;5073323;28;20052;-79
2021/06/19 03:59:59;;;;;;;7.75;2.90;;;;;;;21.42;55.24;100659.59;5073975;28;20052;-77
2021/06/19 04:03:04;;;;;;;5.47;2.90;;;;;;;21.42;55.50;100656.88;5074171;28;20391;-77
2021/06/19 04:06:08;;;;;;;6.15;2.65;;;;;;;21.47;55.04;100653.53;5073167;28;20048;-79
2021/06/19 04:09:12;;;;;;;5.18;2.55;;;;;;;21.65;54.95;100653.91;5074094;28;20048;-77
2021/06/19 04:12:17;;;;;;;5.60;2.67;;;;;;;21.60;54.95;100656.38;5084786;28;20048;-78
2021/06/19 04:15:21;;;;;;;4.90;2.50;;;;;;;21.55;54.86;100669.81;5073879;28;20060;-80
2021/06/19 04:18:25;;;;;;;9.70;2.80;;;;;;;21.51;55.05;100677.53;5085101;28;20494;-78
2021/06/19 04:21:30;;;;;;;3.78;2.30;;;;;;;21.54;55.42;100684.50;5073084;28;20056;-79
2021/06/19 04:24:35;;;;;;;8.35;2.60;;;;;;;21.48;55.13;100680.66;5061528;28;20052;-79
2021/06/19 04:27:49;;;;;;;5.22;2.60;;;;;;;21.50;55.22;100675.84;5073937;28;20414;-78
2021/06/19 04:30:58;;;;;;;;;;;;;;;21.70;55.10;100659.63;5073445;28;20051;-79
2021/06/19 04:34:02;;;;;;;5.15;2.95;;;;;;;22.19;53.61;100649.44;5073582;28;19916;-78
2021/06/19 04:37:12;;;;;;;11.10;3.10;;;;;;;22.73;52.52;100654.09;5074034;28;20063;-79
2021/06/19 04:43:42;;;;;;;5.50;2.72;;;;;;;24.08;49.29;100639.00;5073538;28;20067;-80
2021/06/19 04:46:47;;;;;;;6.72;2.42;;;;;;;24.53;47.74;100627.88;5073792;28;20051;-78
2021/06/19 04:49:53;;;;;;;4.57;2.35;;;;;;;24.86;46.88;100630.44;5072695;28;20119;-79
2021/06/19 04:52:58;;;;;;;4.47;2.60;;;;;;;25.22;46.19;100632.53;5072588;28;20043;-79
2021/06/19 04:56:03;;;;;;;7.82;2.80;;;;;;;25.17;46.68;100624.97;5074826;28;20063;-79
2021/06/19 04:59:08;;;;;;;3.80;2.65;;;;;;;25.16;46.88;100617.78;5077610;28;20056;-77
2021/06/19 05:02:12;;;;;;;7.00;2.88;;;;;;;25.16;46.74;100622.41;5077647;28;20067;-80
2021/06/19 05:05:16;;;;;;;5.80;2.60;;;;;;;25.38;46.65;100620.97;5077469;28;20131;-78
2021/06/19 05:08:22;;;;;;;5.53;2.78;;;;;;;25.64;45.66;100619.94;5076710;28;20052;-78
2021/06/19 05:11:26;;;;;;;13.43;2.92;;;;;;;26.08;44.90;100616.94;5077524;28;20053;-78
2021/06/19 05:14:30;;;;;;;5.68;2.65;;;;;;;26.78;43.88;100623.72;5077312;28;20048;-80
2021/06/19 05:17:38;;;;;;;6.00;2.63;;;;;;;27.16;42.08;100625.28;5075669;28;20051;-79
2021/06/19 05:20:42;;;;;;;5.00;2.30;;;;;;;26.78;42.44;100620.97;5077385;28;20048;-79
2021/06/19 05:23:46;;;;;;;3.50;1.90;;;;;;;26.70;42.11;100620.41;5064485;28;20502;-79
2021/06/19 05:26:51;;;;;;;3.78;1.98;;;;;;;27.25;41.08;100627.47;5077036;28;20052;-79
2021/06/19 05:29:55;;;;;;;4.95;1.92;;;;;;;27.80;39.81;100616.13;5076883;28;20044;-80
2021/06/19 05:32:59;;;;;;;4.30;1.80;;;;;;;28.39;38.63;100613.88;5075954;28;20044;-80
2021/06/19 05:36:04;;;;;;;3.67;1.90;;;;;;;29.08;37.37;100620.25;5076831;28;20047;-79
2021/06/19 05:39:08;;;;;;;5.38;2.00;;;;;;;29.23;37.20;100611.41;5076662;28;20482;-78
2021/06/19 05:42:13;;;;;;;5.85;1.70;;;;;;;29.19;36.54;100608.31;5076785;28;20043;-79
2021/06/19 05:45:17;;;;;;;6.15;1.85;;;;;;;29.41;36.50;100608.38;5076418;28;20514;-80
2021/06/19 05:48:22;;;;;;;5.10;1.88;;;;;;;29.64;35.55;100605.44;5076543;28;20412;-80
2021/06/19 05:51:26;;;;;;;7.38;2.08;;;;;;;29.22;36.12;100618.03;5076616;28;20056;-79
2021/06/19 05:54:35;;;;;;;3.53;2.22;;;;;;;29.48;36.76;100620.16;5075553;28;20115;-78
2021/06/19 05:57:40;;;;;;;3.55;2.17;;;;;;;29.77;36.29;100621.75;5076553;28;20055;-79
2021/06/19 06:00:44;;;;;;;3.85;2.28;;;;;;;30.53;36.27;100618.09;5075719;28;20391;-80
2021/06/19 06:03:48;;;;;;;2.88;1.70;;;;;;;30.55;35.93;100626.13;5055608;28;20482;-78
2021/06/19 06:06:54;;;;;;;6.88;2.50;;;;;;;31.62;34.93;100623.38;5055924;28;20052;-79
2021/06/19 06:09:58;;;;;;;5.13;2.00;;;;;;;32.44;33.01;100610.53;5056243;28;20056;-79
2021/06/19 06:13:04;;;;;;;7.20;1.80;;;;;;;32.85;31.65;100610.69;5056392;28;20048;-79
2021/06/19 06:16:09;;;;;;;5.78;1.85;;;;;;;33.14;30.92;100611.88;5056288;28;20388;-79
2021/06/19 06:19:15;;;;;;;7.05;1.83;;;;;;;34.10;30.07;100595.16;5056255;28;20052;-78
2021/06/19 06:22:19;;;;;;;5.20;1.70;;;;;;;35.81;28.06;100596.84;5056218;28;20064;-79
2021/06/19 06:25:24;;;;;;;5.95;1.88;;;;;;;35.98;26.86;100591.63;5067196;28;20060;-79
2021/06/19 06:28:29;;;;;;;5.30;1.80;;;;;;;34.33;30.02;100600.06;5066575;28;20482;-78
2021/06/19 06:31:34;;;;;;;5.65;2.83;;;;;;;33.24;31.65;100601.59;5067607;28;20491;-78
2021/06/19 06:34:39;;;;;;;6.13;1.85;;;;;;;33.19;31.83;100612.75;5074444;28;20052;-78
2021/06/19 06:37:43;;;;;;;3.65;1.95;;;;;;;33.88;31.32;100628.88;5075889;28;20059;-79
2021/06/19 06:40:47;;;;;;;9.73;2.72;;;;;;;32.80;32.79;100617.09;5075549;28;20498;-79
2021/06/19 06:43:52;;;;;;;6.35;1.83;;;;;;;32.19;34.63;100620.72;5074920;28;20035;-77
2021/06/19 06:46:56;;;;;;;4.80;1.98;;;;;;;32.32;34.78;100625.81;5066354;28;20067;-77
2021/06/19 06:50:00;;;;;;;7.65;1.95;;;;;;;33.14;32.66;100611.88;5075504;28;20048;-78
2021/06/19 06:53:05;;;;;;;4.03;1.80;;;;;;;34.92;29.40;100616.78;5075552;28;20384;-78
2021/06/19 06:56:09;;;;;;;5.43;1.52;;;;;;;35.07;29.29;100631.53;5073686;28;20055;-83
2021/06/19 06:59:14;;;;;;;11.93;10.50;;;;;;;36.27;27.15;100637.16;5074857;28;20056;-75
2021/06/19 07:02:19;;;;;;;22.33;16.95;;;;;;;36.77;26.30;100623.66;5071757;28;20044;-74
2021/06/19 07:05:23;;;;;;;4.65;1.90;;;;;;;38.91;23.70;100622.03;5074035;28;20076;-74
2021/06/19 07:08:27;;;;;;;9.27;1.60;;;;;;;38.15;23.69;100631.22;5075121;28;20399;-75
2021/06/19 07:11:32;;;;;;;5.88;1.50;;;;;;;36.10;25.57;100650.78;5055395;28;20067;-74
2021/06/19 07:14:36;;;;;;;8.00;1.73;;;;;;;35.92;26.12;100645.91;5062693;28;20047;-75
2021/06/19 07:17:41;;;;;;;6.97;1.70;;;;;;;35.65;26.96;100643.63;5074502;28;20079;-74
2021/06/19 07:20:45;;;;;;;6.50;2.28;;;;;;;34.97;27.99;100650.25;5074811;28;20052;-77
2021/06/19 07:23:50;;;;;;;6.15;1.83;;;;;;;34.39;29.74;100646.34;5067901;28;20051;-76
2021/06/19 07:26:55;;;;;;;9.02;1.77;;;;;;;33.84;29.72;100638.91;5071819;28;20055;-74
2021/06/19 07:29:59;;;;;;;4.85;1.80;;;;;;;34.83;27.55;100624.97;5072428;28;20091;-76
2021/06/19 07:33:04;;;;;;;4.78;1.58;;;;;;;36.52;24.52;100616.47;5073182;28;20043;-77
2021/06/19 07:36:09;;;;;;;8.98;2.13;;;;;;;38.57;23.68;100604.03;5071999;28;20055;-73
2021/06/19 07:39:15;;;;;;;11.32;9.20;;;;;;;38.43;23.43;100601.22;5065768;28;20048;-75
2021/06/19 07:42:22;;;;;;;49.80;45.15;;;;;;;38.34;22.38;100589.88;5054738;28;20048;-73
2021/06/19 07:45:27;;;;;;;6.07;3.28;;;;;;;37.37;23.69;100586.38;5053314;28;20112;-73
2021/06/19 07:48:32;;;;;;;6.18;3.60;;;;;;;36.57;24.43;100588.41;5059846;28;20051;-73
2021/06/19 07:51:36;;;;;;;10.85;9.35;;;;;;;36.27;24.99;100591.59;5062777;28;20047;-74
2021/06/19 07:54:41;;;;;;;14.60;11.02;;;;;;;36.02;25.96;100578.78;5052506;28;20074;-74
2021/06/19 07:57:49;;;;;;;9.30;8.40;;;;;;;35.50;26.14;100567.53;5073900;28;20143;-79
2021/06/19 08:00:54;;;;;;;11.13;2.40;;;;;;;34.77;26.80;100563.88;5071809;28;20047;-79
2021/06/19 08:03:58;;;;;;;3.58;2.03;;;;;;;34.02;27.44;100547.19;5073005;28;20051;-78
2021/06/19 08:07:10;;;;;;;4.75;1.90;;;;;;;32.99;28.23;100554.25;5074435;28;20051;-79
2021/06/19 08:10:18;;;;;;;3.88;2.10;;;;;;;32.68;29.24;100563.69;5071090;28;20051;-78
2021/06/19 08:13:23;;;;;;;5.53;1.85;;;;;;;31.52;30.71;100566.69;5071527;28;20047;-78
2021/06/19 08:16:29;;;;;;;4.28;1.88;;;;;;;31.37;31.67;100574.03;5070092;28;20538;-78
2021/06/19 08:19:35;;;;;;;8.15;1.85;;;;;;;31.38;32.04;100578.50;5053316;28;20052;-78
2021/06/19 08:22:39;;;;;;;5.88;2.08;;;;;;;31.12;32.73;100588.53;5069717;28;20051;-78
2021/06/19 08:25:44;;;;;;;6.72;2.10;;;;;;;30.74;33.99;100588.66;5063692;28;20056;-78
2021/06/19 08:28:48;;;;;;;8.00;2.30;;;;;;;30.77;35.09;100579.81;5052443;28;20048;-77
2021/06/19 08:31:52;;;;;;;13.15;9.15;;;;;;;30.73;35.24;100573.16;5064167;28;20050;-78
2021/06/19 08:34:56;;;;;;;11.75;8.15;;;;;;;30.23;36.14;100553.97;5052934;28;20404;-78
2021/06/19 08:38:00;;;;;;;3.17;1.50;;;;;;;30.04;35.45;100547.09;5051750;28;20056;-77
2021/06/19 08:41:09;;;;;;;7.47;1.73;;;;;;;30.02;35.41;100539.03;5051874;28;20040;-78
2021/06/19 08:44:20;;;;;;;3.85;1.70;;;;;;;30.52;34.35;100543.53;5051764;28;20515;-78
2021/06/19 08:47:25;;;;;;;5.72;2.10;;;;;;;30.91;34.03;100541.47;5052547;28;20048;-78
2021/06/19 08:50:30;;;;;;;7.63;2.20;;;;;;;31.20;33.34;100534.50;5069754;28;20051;-78
2021/06/19 08:53:35;;;;;;;5.97;1.90;;;;;;;30.73;33.42;100531.56;5072164;28;20047;-78
2021/06/19 08:56:43;;;;;;;3.55;2.03;;;;;;;31.12;33.13;100541.38;5068429;28;20123;-78
2021/06/19 08:59:49;;;;;;;6.40;1.58;;;;;;;31.37;32.44;100526.88;5069671;28;20047;-78
2021/06/19 09:02:54;;;;;;;5.97;1.80;;;;;;;31.76;32.07;100531.03;5072213;28;20052;-77
2021/06/19 09:06:16;;;;;;;5.10;1.65;;;;;;;31.63;31.85;100525.94;5071512;28;20499;-77
2021/06/19 09:09:21;;;;;;;5.03;1.75;;;;;;;31.40;31.89;100518.84;5071767;28;20399;-77
2021/06/19 09:12:25;;;;;;;8.00;1.70;;;;;;;31.32;31.91;100515.72;5073583;28;20052;-77
2021/06/19 09:15:33;;;;;;;3.95;1.70;;;;;;;31.40;32.99;100504.97;5072361;28;20056;-76
2021/06/19 09:18:37;;;;;;;7.65;1.77;;;;;;;31.29;32.42;100496.84;5073493;28;20047;-76
2021/06/19 09:21:41;;;;;;;5.32;2.22;;;;;;;31.64;31.63;100490.69;5073456;28;20047;-76
2021/06/19 09:24:49;;;;;;;4.03;1.63;;;;;;;32.59;30.45;100493.06;5073126;28;20044;-76
2021/06/19 09:27:56;;;;;;;6.25;2.08;;;;;;;33.30;29.82;100494.75;5072621;28;20048;-76
2021/06/19 09:31:00;;;;;;;5.53;2.17;;;;;;;33.17;29.20;100494.47;5073415;28;20048;-76
2021/06/19 09:34:09;;;;;;;7.85;1.95;;;;;;;32.72;30.37;100487.78;5072894;28;20060;-76
2021/06/19 09:37:14;;;;;;;3.97;1.70;;;;;;;32.68;30.69;100483.03;5072453;28;20061;-76
2021/06/19 09:40:18;;;;;;;3.42;1.70;;;;;;;33.35;29.71;100491.13;5073398;28;20068;-77
2021/06/19 09:43:28;;;;;;;6.35;1.90;;;;;;;33.27;28.04;100489.72;5076653;28;20064;-78
2021/06/19 09:46:33;;;;;;;7.97;1.58;;;;;;;33.30;28.74;100488.34;5077111;28;20055;-76
2021/06/19 09:49:40;;;;;;;4.45;1.52;;;;;;;33.63;28.14;100484.13;5076077;28;20395;-76
2021/06/19 09:52:46;;;;;;;2.55;1.20;;;;;;;33.84;26.87;100480.13;5076993;28;20494;-76
2021/06/19 09:56:05;;;;;;;8.68;1.70;;;;;;;34.02;26.48;100480.31;5076677;28;20051;-76
2021/06/19 09:59:23;;;;;;;5.82;1.55;;;;;;;34.11;26.51;100476.97;5076627;28;20059;-76
2021/06/19 10:02:28;;;;;;;3.53;1.98;;;;;;;34.08;25.81;100481.16;5077247;28;20094;-77
2021/06/19 10:05:32;;;;;;;21.33;19.23;;;;;;;34.21;26.44;100471.34;5076722;28;20047;-77
2021/06/19 10:08:37;;;;;;;15.13;4.70;;;;;;;34.24;27.70;100471.63;5076472;28;20055;-76
2021/06/19 10:11:44;;;;;;;5.55;1.58;;;;;;;34.07;27.95;100476.75;5075358;28;20506;-77
2021/06/19 10:14:53;;;;;;;4.47;1.65;;;;;;;34.28;26.91;100483.84;5076380;28;20048;-76
2021/06/19 10:17:59;;;;;;;5.60;1.30;;;;;;;34.53;27.29;100486.47;5076255;28;20055;-76
2021/06/19 10:21:05;;;;;;;8.52;1.55;;;;;;;34.65;27.17;100481.41;5076269;28;20052;-76
2021/06/19 10:24:11;;;;;;;6.30;1.77;;;;;;;34.54;27.39;100487.34;5076198;28;20067;-76
2021/06/19 10:27:17;;;;;;;5.97;1.58;;;;;;;34.45;27.28;100484.31;5076194;28;20072;-75
2021/06/19 10:30:25;;;;;;;4.30;1.35;;;;;;;34.43;27.21;100486.56;5075310;28;20051;-78
2021/06/19 10:33:32;;;;;;;3.92;1.40;;;;;;;34.58;27.16;100480.06;5075686;28;20056;-76
2021/06/19 10:36:38;;;;;;;5.07;1.60;;;;;;;34.41;27.19;100476.81;5075036;28;20047;-76
2021/06/19 10:39:44;;;;;;;3.97;2.00;;;;;;;34.30;27.94;100477.97;5075915;28;20047;-77
2021/06/19 10:42:52;;;;;;;4.22;1.55;;;;;;;34.26;27.85;100472.16;5075032;28;20510;-76
2021/06/19 10:46:32;;;;;;;4.80;1.60;;;;;;;34.54;27.69;100479.81;5075864;28;20056;-76
2021/06/19 10:49:37;;;;;;;4.18;1.50;;;;;;;34.92;27.62;100477.28;5074928;28;20047;-76
2021/06/19 10:52:41;;;;;;;4.30;1.70;;;;;;;35.09;26.88;100475.75;5074951;28;20051;-76
2021/06/19 10:55:50;;;;;;;3.70;1.75;;;;;;;35.32;27.14;100462.13;5075531;28;20098;-78
2021/06/19 10:59:17;;;;;;;5.90;2.30;;;;;;;35.01;26.87;100462.41;5075458;28;20047;-78
2021/06/19 11:02:48;;;;;;;4.15;2.15;;;;;;;35.03;26.38;100459.34;5075421;28;20043;-76
2021/06/19 11:05:54;;;;;;;6.57;1.80;;;;;;;34.54;26.57;100453.91;5075368;28;20396;-77
2021/06/19 11:09:20;;;;;;;4.25;1.85;;;;;;;34.73;26.74;100462.38;5075245;28;20056;-77
2021/06/19 11:12:30;;;;;;;8.02;1.67;;;;;;;34.39;27.77;100462.34;5074927;28;20043;-76
2021/06/19 11:15:34;;;;;;;2.90;1.48;;;;;;;34.55;27.55;100452.75;5075042;28;20052;-76
2021/06/19 11:18:50;;;;;;;3.80;1.90;;;;;;;34.36;27.73;100448.97;5075027;28;20071;-77
2021/06/19 11:22:27;;;;;;;5.22;1.50;;;;;;;34.31;28.24;100452.63;5074935;28;20048;-76
2021/06/19 11:25:52;;;;;;;4.78;1.80;;;;;;;34.24;27.84;100452.13;5074714;28;20494;-76
2021/06/19 11:28:57;;;;;;;7.50;2.00;;;;;;;34.36;28.01;100458.16;5074885;28;20072;-76
2021/06/19 11:32:27;;;;;;;7.40;2.20;;;;;;;34.47;29.40;100451.38;5074800;28;20048;-76
2021/06/19 11:35:31;;;;;;;9.55;1.83;;;;;;;34.54;28.57;100453.91;5074777;28;20048;-76
2021/06/19 11:38:45;;;;;;;8.95;1.90;;;;;;;34.80;27.92;100448.94;5073936;28;20063;-76
2021/06/19 11:41:50;;;;;;;51.67;45.55;;;;;;;34.95;28.70;100441.28;5074761;28;20043;-76
2021/06/19 11:44:54;;;;;;;15.32;12.98;;;;;;;35.07;27.36;100441.75;5074609;28;20397;-76
2021/06/19 11:48:11;;;;;;;3.97;2.17;;;;;;;35.18;26.44;100436.91;5074596;28;20047;-77
2021/06/19 11:51:18;;;;;;;3.25;1.58;;;;;;;35.11;26.34;100431.63;5074463;28;20581;-76
2021/06/19 11:54:24;;;;;;;5.30;1.80;;;;;;;34.97;26.55;100422.28;5073648;28;20043;-76
2021/06/19 11:57:30;;;;;;;6.20;1.70;;;;;;;34.85;27.67;100423.78;5074283;28;20499;-76
2021/06/19 12:00:53;;;;;;;5.72;1.63;;;;;;;34.82;27.22;100441.09;5073548;28;20399;-76
2021/06/19 12:04:03;;;;;;;;;;;;;;;34.71;27.11;100432.00;5074236;28;20048;-76
2021/06/19 12:07:08;;;;;;;5.25;1.80;;;;;;;34.58;27.51;100429.88;5074112;28;19916;-76
2021/06/19 12:10:26;;;;;;;3.45;1.70;;;;;;;34.45;28.38;100431.31;5074273;28;20055;-76
2021/06/19 12:13:32;;;;;;;5.07;1.70;;;;;;;34.59;28.36;100425.97;5074189;28;20123;-77
2021/06/19 12:16:36;;;;;;;4.25;2.03;;;;;;;34.55;28.51;100422.06;5074055;28;20498;-77
2021/06/19 12:19:43;;;;;;;3.92;1.60;;;;;;;34.73;28.15;100424.16;5074138;28;20047;-78
2021/06/19 12:22:49;;;;;;;5.45;1.42;;;;;;;34.97;28.36;100421.44;5074069;28;20044;-76
2021/06/19 12:26:04;;;;;;;3.28;1.52;;;;;;;35.05;28.08;100415.25;5073980;28;20474;-77
2021/06/19 12:29:10;;;;;;;7.00;1.70;;;;;;;35.03;27.59;100409.97;5074047;28;20043;-76
2021/06/19 12:32:34;;;;;;;7.30;1.73;;;;;;;35.15;27.85;100412.34;5071898;28;20048;-77
2021/06/19 12:35:39;;;;;;;5.65;1.45;;;;;;;35.10;27.69;100407.66;5080959;28;20043;-77
2021/06/19 12:38:45;;;;;;;2.92;1.20;;;;;;;35.23;26.68;100401.34;5073957;28;20056;-77
2021/06/19 12:41:50;;;;;;;5.65;1.70;;;;;;;34.79;26.28;100392.28;5073680;28;20067;-77
2021/06/19 12:45:24;;;;;;;8.38;1.40;;;;;;;34.75;26.87;100398.75;5073159;28;20059;-76
2021/06/19 12:48:38;;;;;;;7.28;1.80;;;;;;;34.49;28.06;100390.56;5071234;28;20060;-78
2021/06/19 12:51:42;;;;;;;4.25;1.70;;;;;;;34.50;28.03;100392.25;5071492;28;20048;-76
2021/06/19 12:54:46;;;;;;;5.75;2.33;;;;;;;34.54;28.17;100392.53;5070396;28;20450;-75
2021/06/19 12:58:11;;;;;;;5.05;1.80;;;;;;;34.40;28.30;100386.75;5071736;28;20056;-78
2021/06/19 13:01:21;;;;;;;4.40;1.50;;;;;;;34.39;28.23;100381.47;5072210;28;20071;-86
2021/06/19 13:04:28;;;;;;;4.97;1.45;;;;;;;34.16;28.44;100380.25;5049702;28;20443;-81
2021/06/19 13:07:33;;;;;;;4.80;1.65;;;;;;;34.18;28.74;100372.44;5062900;28;20059;-82
2021/06/19 13:10:38;;;;;;;6.03;1.80;;;;;;;33.99;28.77;100383.41;5064105;28;20056;-81
2021/06/19 13:13:45;;;;;;;5.57;2.05;;;;;;;33.91;29.44;100377.59;5056236;28;20048;-81
2021/06/19 13:16:51;;;;;;;8.55;1.80;;;;;;;33.86;29.64;100374.84;5054889;28;20048;-80
2021/06/19 13:19:56;;;;;;;9.38;2.15;;;;;;;33.89;28.93;100377.88;5057629;28;20040;-78
2021/06/19 13:23:14;;;;;;;6.47;1.98;;;;;;;33.84;28.57;100377.91;5055144;28;20112;-79
2021/06/19 13:26:24;;;;;;;6.45;2.00;;;;;;;33.94;28.45;100368.66;5057255;28;20048;-84
2021/06/19 13:29:28;;;;;;;11.70;1.80;;;;;;;34.02;28.12;100368.88;5045300;28;20048;-81
2021/06/19 13:32:52;;;;;;;12.20;2.10;;;;;;;34.03;28.54;100361.34;5060308;28;20078;-82
2021/06/19 13:35:56;;;;;;;7.13;2.20;;;;;;;34.08;28.90;100360.50;5076562;28;20047;-81
2021/06/19 13:39:45;;;;;;;7.05;2.13;;;;;;;34.11;28.57;100368.28;5087943;28;20060;-84
2021/06/19 13:42:57;;;;;;;7.70;2.63;;;;;;;34.09;28.69;100351.88;5034938;28;20061;-85
2021/06/19 13:46:02;;;;;;;7.20;1.90;;;;;;;34.19;28.90;100350.97;5034991;28;20129;-80
2021/06/19 13:49:06;;;;;;;5.97;1.88;;;;;;;34.22;29.16;100353.19;5033637;28;20141;-82
2021/06/19 13:52:12;;;;;;;7.75;2.10;;;;;;;34.31;28.50;100351.44;5023459;28;20048;-83
2021/06/19 13:55:17;;;;;;;5.00;1.90;;;;;;;34.29;28.89;100351.72;5034312;28;20052;-77
2021/06/19 13:58:21;;;;;;;4.80;1.90;;;;;;;34.24;28.69;100348.16;5033993;28;20053;-77
2021/06/19 14:01:27;;;;;;;9.25;1.80;;;;;;;34.18;28.79;100335.34;5034615;28;20539;-78
2021/06/19 14:04:33;;;;;;;7.57;2.25;;;;;;;34.17;29.79;100333.72;5023375;28;20053;-78
2021/06/19 14:07:37;;;;;;;7.93;2.17;;;;;;;34.26;29.79;100330.00;5034628;28;20048;-77
2021/06/19 14:10:42;;;;;;;12.48;2.28;;;;;;;34.35;29.47;100333.81;5034663;28;20377;-77
2021/06/19 14:13:46;;;;;;;7.15;2.83;;;;;;;34.38;29.32;100321.25;5034725;28;20044;-76
2021/06/19 14:16:51;;;;;;;7.97;2.42;;;;;;;34.40;30.15;100322.63;5064971;28;20067;-77
2021/06/19 14:19:55;;;;;;;10.95;2.50;;;;;;;34.39;29.80;100320.16;5056275;28;20376;-78
2021/06/19 14:23:00;;;;;;;10.93;2.22;;;;;;;34.43;30.49;100310.91;5056300;28;20056;-77
2021/06/19 14:26:07;;;;;;;9.85;2.10;;;;;;;34.29;29.71;100300.72;5056165;28;20052;-77
2021/06/19 14:29:12;;;;;;;6.90;1.92;;;;;;;34.19;30.07;100293.28;5056263;28;20052;-78
2021/06/19 14:32:16;;;;;;;8.00;2.22;;;;;;;34.20;30.59;100308.03;5055513;28;20056;-77